Time,TemperatureF,DewpointF,PressureIn,WindDirection,WindDirectionDegrees,WindSpeedMPH,WindSpeedGustMPH,Humidity,HourlyPrecipIn,Conditions,Clouds,dailyrainin,SoftwareType,DateUTC
2013-04-01 00:00:00,35.7,34.4,29.71,West,274,1.0,1.0,95,0.00,,,0.15,Wunderground v.1.15,2013-04-01 04:00:00,
2013-04-01 00:02:00,35.6,34.3,29.71,West,273,1.0,17.0,95,0.00,,,0.00,Wunderground v.1.15,2013-04-01 04:02:00,
2013-04-01 00:04:00,35.6,34.3,29.71,WSW,239,0.0,17.0,95,0.00,,,0.00,Wunderground v.1.15,2013-04-01 04:04:00,
2013-04-01 00:06:00,35.7,34.4,29.71,WSW,238,0.0,17.0,95,0.00,,,0.00,Wunderground v.1.15,2013-04-01 04:06:00,
2013-04-01 00:12:00,35.6,34.3,29.71,WSW,257,0.0,17.0,95,0.00,,,0.00,Wunderground v.1.15,2013-04-01 04:12:00,
2013-04-01 00:17:00,35.6,34.3,29.71,WNW,284,0.0,17.0,95,0.00,,,0.00,Wunderground v.1.15,2013-04-01 04:17:00,
2013-04-01 00:23:00,35.6,34.3,29.71,WNW,284,0.0,17.0,95,0.00,,,0.00,Wunderground v.1.15,2013-04-01 04:23:00,
2013-04-01 00:29:00,35.5,34.2,29.71,SSW,211,0.0,17.0,95,0.00,,,0.00,Wunderground v.1.15,2013-04-01 04:29:00,
2013-04-01 00:35:00,35.5,34.2,29.70,SSW,210,0.0,17.0,95,0.00,,,0.00,Wunderground v.1.15,2013-04-01 04:35:00,
2013-04-01 00:40:00,35.6,34.3,29.70,SW,235,1.0,1.0,95,0.00,,,0.00,Wunderground v.1.15,2013-04-01 04:40:00,
2013-04-01 00:45:00,35.5,34.2,29.70,WSW,238,1.0,17.0,95,0.00,,,0.00,Wunderground v.1.15,2013-04-01 04:45:00,
2013-04-01 00:51:00,35.5,34.2,29.70,SSW,195,0.0,17.0,95,0.00,,,0.00,Wunderground v.1.15,2013-04-01 04:51:00,
2013-04-01 00:56:00,35.4,34.1,29.70,SW,235,0.0,17.0,95,0.00,,,0.00,Wunderground v.1.15,2013-04-01 04:56:00,
2013-04-01 01:02:00,35.4,34.1,29.69,SW,233,0.0,17.0,95,0.00,,,0.00,Wunderground v.1.15,2013-04-01 05:02:00,
2013-04-01 01:07:00,35.3,34.0,29.69,SW,235,0.0,17.0,95,0.00,,,0.00,Wunderground v.1.15,2013-04-01 05:07:00,
2013-04-01 01:13:00,35.3,34.0,29.69,SW,225,0.0,17.0,95,0.00,,,0.00,Wunderground v.1.15,2013-04-01 05:13:00,
2013-04-01 01:19:00,35.2,34.2,29.69,SW,225,0.0,17.0,96,0.00,,,0.00,Wunderground v.1.15,2013-04-01 05:19:00,
2013-04-01 01:25:00,35.2,34.2,29.69,SW,225,0.0,17.0,96,0.00,,,0.00,Wunderground v.1.15,2013-04-01 05:25:00,
2013-04-01 01:30:00,35.3,34.3,29.68,SW,225,0.0,17.0,96,0.00,,,0.00,Wunderground v.1.15,2013-04-01 05:30:00,
2013-04-01 01:36:00,35.3,34.3,29.68,SW,225,0.0,17.0,96,0.00,,,0.00,Wunderground v.1.15,2013-04-01 05:36:00,
2013-04-01 01:42:00,35.2,34.2,29.68,SW,225,0.0,17.0,96,0.00,,,0.00,Wunderground v.1.15,2013-04-01 05:42:00,
2013-04-01 01:47:00,35.2,34.2,29.68,SW,225,0.0,17.0,96,0.00,,,0.00,Wunderground v.1.15,2013-04-01 05:47:00,
2013-04-01 01:53:00,35.2,34.2,29.67,SW,225,0.0,17.0,96,0.00,,,0.00,Wunderground v.1.15,2013-04-01 05:53:00,
2013-04-01 01:58:00,35.3,34.3,29.67,SW,225,0.0,17.0,96,0.00,,,0.00,Wunderground v.1.15,2013-04-01 05:58:00,
2013-04-01 02:04:00,35.3,34.3,29.67,SW,225,0.0,17.0,96,0.00,,,0.00,Wunderground v.1.15,2013-04-01 06:04:00,
2013-04-01 02:10:00,35.3,34.3,29.67,SW,225,0.0,17.0,96,0.00,,,0.00,Wunderground v.1.15,2013-04-01 06:10:00,
2013-04-01 02:16:00,35.3,34.3,29.66,SW,225,0.0,17.0,96,0.00,,,0.00,Wunderground v.1.15,2013-04-01 06:16:00,
2013-04-01 02:21:00,35.3,34.3,29.66,WSW,238,0.0,17.0,96,0.00,,,0.00,Wunderground v.1.15,2013-04-01 06:21:00,
2013-04-01 02:27:00,35.5,34.5,29.66,WSW,242,0.0,17.0,96,0.00,,,0.00,Wunderground v.1.15,2013-04-01 06:27:00,
2013-04-01 02:32:00,35.7,34.7,29.66,SW,231,0.0,17.0,96,0.00,,,0.00,Wunderground v.1.15,2013-04-01 06:32:00,
2013-04-01 02:38:00,35.9,34.9,29.66,West,274,1.0,17.0,96,0.00,,,0.00,Wunderground v.1.15,2013-04-01 06:38:00,
2013-04-01 02:43:00,36.1,35.1,29.66,SSW,211,0.0,17.0,96,0.00,,,0.00,Wunderground v.1.15,2013-04-01 06:43:00,
2013-04-01 02:49:00,36.1,35.1,29.66,WSW,252,0.0,17.0,96,0.00,,,0.00,Wunderground v.1.15,2013-04-01 06:49:00,
2013-04-01 02:55:00,36.0,35.0,29.66,SW,225,0.0,17.0,96,0.00,,,0.00,Wunderground v.1.15,2013-04-01 06:55:00,
2013-04-01 03:02:00,36.1,35.1,29.66,WSW,239,0.0,17.0,96,0.00,,,0.00,Wunderground v.1.15,2013-04-01 07:02:00,
2013-04-01 03:07:00,36.3,35.3,29.66,South,176,1.0,17.0,96,0.00,,,0.00,Wunderground v.1.15,2013-04-01 07:07:00,
2013-04-01 03:13:00,36.3,35.3,29.66,South,176,1.0,17.0,96,0.00,,,0.00,Wunderground v.1.15,2013-04-01 07:13:00,
2013-04-01 03:19:00,36.2,35.2,29.65,South,183,0.0,17.0,96,0.00,,,0.00,Wunderground v.1.15,2013-04-01 07:19:00,
2013-04-01 03:25:00,36.2,35.2,29.65,South,188,0.0,17.0,96,0.00,,,0.00,Wunderground v.1.15,2013-04-01 07:25:00,
2013-04-01 03:31:00,36.3,35.3,29.65,SW,228,0.0,17.0,96,0.00,,,0.00,Wunderground v.1.15,2013-04-01 07:31:00,
2013-04-01 03:37:00,36.3,35.3,29.64,SW,228,0.0,17.0,96,0.00,,,0.00,Wunderground v.1.15,2013-04-01 07:37:00,
2013-04-01 03:42:00,36.2,35.2,29.65,SSW,197,0.0,17.0,96,0.00,,,0.00,Wunderground v.1.15,2013-04-01 07:42:00,
2013-04-01 03:47:00,36.2,35.2,29.64,South,176,0.0,17.0,96,0.00,,,0.00,Wunderground v.1.15,2013-04-01 07:47:00,
2013-04-01 03:53:00,36.3,35.3,29.64,SSW,203,0.0,17.0,96,0.00,,,0.00,Wunderground v.1.15,2013-04-01 07:53:00,
2013-04-01 03:58:00,36.3,35.3,29.65,SSW,203,0.0,17.0,96,0.00,,,0.00,Wunderground v.1.15,2013-04-01 07:58:00,
2013-04-01 04:04:00,36.3,35.3,29.65,SW,222,0.0,17.0,96,0.00,,,0.00,Wunderground v.1.15,2013-04-01 08:04:00,
2013-04-01 04:10:00,36.4,35.4,29.65,SW,225,0.0,17.0,96,0.00,,,0.00,Wunderground v.1.15,2013-04-01 08:10:00,
2013-04-01 04:16:00,36.7,35.9,29.65,SSW,204,0.0,17.0,97,0.00,,,0.00,Wunderground v.1.15,2013-04-01 08:16:00,
2013-04-01 04:22:00,36.9,36.1,29.65,West,280,1.0,17.0,97,0.00,,,0.00,Wunderground v.1.15,2013-04-01 08:22:00,
2013-04-01 04:28:00,37.1,36.3,29.65,WSW,245,1.0,17.0,97,0.00,,,0.00,Wunderground v.1.15,2013-04-01 08:28:00,
2013-04-01 04:34:00,37.3,36.5,29.65,SE,129,2.0,17.0,97,0.00,,,0.00,Wunderground v.1.15,2013-04-01 08:34:00,
2013-04-01 04:40:00,37.5,36.7,29.66,SW,235,2.0,17.0,97,0.00,,,0.00,Wunderground v.1.15,2013-04-01 08:40:00,
2013-04-01 04:45:00,37.5,36.5,29.65,West,280,2.0,17.0,96,0.00,,,0.00,Wunderground v.1.15,2013-04-01 08:45:00,
2013-04-01 04:52:00,37.7,36.7,29.66,WSW,249,2.0,17.0,96,0.00,,,0.00,Wunderground v.1.15,2013-04-01 08:52:00,
2013-04-01 04:58:00,37.6,36.6,29.66,SSW,193,2.0,17.0,96,0.00,,,0.00,Wunderground v.1.15,2013-04-01 08:58:00,
2013-04-01 05:04:00,37.6,36.6,29.66,SW,225,2.0,17.0,96,0.00,,,0.00,Wunderground v.1.15,2013-04-01 09:04:00,
2013-04-01 05:09:00,37.6,36.6,29.66,West,267,2.0,17.0,96,0.00,,,0.00,Wunderground v.1.15,2013-04-01 09:09:00,
2013-04-01 05:14:00,37.6,36.6,29.66,WSW,248,1.0,17.0,96,0.00,,,0.00,Wunderground v.1.15,2013-04-01 09:14:00,
2013-04-01 05:19:00,37.6,36.6,29.66,SW,226,1.0,17.0,96,0.00,,,0.00,Wunderground v.1.15,2013-04-01 09:19:00,
2013-04-01 05:25:00,37.6,36.6,29.66,SSW,210,1.0,17.0,96,0.00,,,0.00,Wunderground v.1.15,2013-04-01 09:25:00,
2013-04-01 05:31:00,37.7,36.7,29.66,WSW,239,1.0,17.0,96,0.00,,,0.00,Wunderground v.1.15,2013-04-01 09:31:00,
2013-04-01 05:36:00,37.6,36.6,29.66,SSE,152,1.0,17.0,96,0.00,,,0.00,Wunderground v.1.15,2013-04-01 09:36:00,
2013-04-01 05:42:00,37.6,36.6,29.66,SW,225,2.0,17.0,96,0.00,,,0.00,Wunderground v.1.15,2013-04-01 09:42:00,
2013-04-01 05:47:00,37.6,36.3,29.65,South,170,1.0,17.0,95,0.00,,,0.00,Wunderground v.1.15,2013-04-01 09:47:00,
2013-04-01 05:53:00,37.5,36.2,29.65,South,191,1.0,17.0,95,0.00,,,0.00,Wunderground v.1.15,2013-04-01 09:53:00,
2013-04-01 05:59:00,37.4,36.1,29.66,SSW,212,1.0,17.0,95,0.00,,,0.00,Wunderground v.1.15,2013-04-01 09:59:00,
2013-04-01 06:04:00,37.4,36.4,29.65,SE,146,1.0,17.0,96,0.00,,,0.00,Wunderground v.1.15,2013-04-01 10:04:00,
2013-04-01 06:09:00,37.5,36.5,29.66,WSW,255,2.0,17.0,96,0.00,,,0.00,Wunderground v.1.15,2013-04-01 10:09:00,
2013-04-01 06:15:00,37.6,36.6,29.66,SW,218,2.0,6.0,96,0.00,,,0.00,Wunderground v.1.15,2013-04-01 10:15:00,
2013-04-01 06:20:00,37.7,36.4,29.66,WSW,255,2.0,3.0,95,0.00,,,0.00,Wunderground v.1.15,2013-04-01 10:20:00,
2013-04-01 06:25:00,37.9,36.6,29.66,SSW,210,2.0,3.0,95,0.00,,,0.00,Wunderground v.1.15,2013-04-01 10:25:00,
2013-04-01 06:31:00,38.0,36.7,29.66,SW,229,2.0,4.0,95,0.00,,,0.00,Wunderground v.1.15,2013-04-01 10:31:00,
2013-04-01 06:36:00,38.2,36.9,29.65,SW,218,2.0,4.0,95,0.00,,,0.00,Wunderground v.1.15,2013-04-01 10:36:00,
2013-04-01 06:41:00,38.3,36.7,29.65,SW,228,2.0,2.0,94,0.00,,,0.00,Wunderground v.1.15,2013-04-01 10:41:00,
2013-04-01 06:46:00,38.3,36.7,29.65,West,260,1.0,3.0,94,0.00,,,0.00,Wunderground v.1.15,2013-04-01 10:46:00,
2013-04-01 06:51:00,38.4,36.8,29.65,SW,235,2.0,3.0,94,0.00,,,0.00,Wunderground v.1.15,2013-04-01 10:51:00,
2013-04-01 06:57:00,38.5,36.9,29.65,SW,219,2.0,3.0,94,0.00,,,0.00,Wunderground v.1.15,2013-04-01 10:57:00,
2013-04-01 07:02:00,38.5,36.9,29.65,West,259,2.0,8.0,94,0.00,,,0.00,Wunderground v.1.15,2013-04-01 11:02:00,
2013-04-01 07:07:00,38.6,37.0,29.65,WSW,240,2.0,8.0,94,0.00,,,0.00,Wunderground v.1.15,2013-04-01 11:07:00,
2013-04-01 07:12:00,38.6,37.0,29.64,SE,140,2.0,8.0,94,0.00,,,0.00,Wunderground v.1.15,2013-04-01 11:12:00,
2013-04-01 07:17:00,38.8,37.2,29.64,South,191,3.0,8.0,94,0.00,,,0.00,Wunderground v.1.15,2013-04-01 11:17:00,
2013-04-01 07:23:00,38.8,36.9,29.64,West,270,2.0,8.0,93,0.00,,,0.00,Wunderground v.1.15,2013-04-01 11:23:00,
2013-04-01 07:29:00,38.7,36.9,29.64,SSE,164,2.0,8.0,93,0.00,,,0.00,Wunderground v.1.15,2013-04-01 11:29:00,
2013-04-01 07:34:00,38.7,36.9,29.64,SW,223,2.0,8.0,93,0.00,,,0.00,Wunderground v.1.15,2013-04-01 11:34:00,
2013-04-01 07:39:00,38.9,37.3,29.64,ESE,103,2.0,8.0,94,0.00,,,0.00,Wunderground v.1.15,2013-04-01 11:39:00,
2013-04-01 07:44:00,39.0,37.4,29.63,WSW,238,2.0,8.0,94,0.00,,,0.00,Wunderground v.1.15,2013-04-01 11:44:00,
2013-04-01 07:49:00,39.1,37.2,29.63,West,276,2.0,8.0,93,0.00,,,0.00,Wunderground v.1.15,2013-04-01 11:49:00,
2013-04-01 07:54:00,39.2,37.3,29.63,West,280,2.0,8.0,93,0.00,,,0.00,Wunderground v.1.15,2013-04-01 11:54:00,
2013-04-01 08:00:00,39.4,37.5,29.63,South,181,2.0,8.0,93,0.00,,,0.00,Wunderground v.1.15,2013-04-01 12:00:00,
2013-04-01 08:05:00,39.7,37.8,29.62,South,190,3.0,8.0,93,0.00,,,0.00,Wunderground v.1.15,2013-04-01 12:05:00,
2013-04-01 08:11:00,39.9,37.8,29.63,SSW,211,3.0,8.0,92,0.00,,,0.01,Wunderground v.1.15,2013-04-01 12:11:00,
2013-04-01 08:16:00,40.2,38.1,29.63,WSW,238,4.0,8.0,92,0.00,,,0.01,Wunderground v.1.15,2013-04-01 12:16:00,
2013-04-01 08:21:00,40.4,38.0,29.63,WSW,257,4.0,7.0,91,0.00,,,0.01,Wunderground v.1.15,2013-04-01 12:21:00,
2013-04-01 08:26:00,40.6,38.2,29.63,SSE,168,3.0,8.0,91,0.00,,,0.01,Wunderground v.1.15,2013-04-01 12:26:00,
2013-04-01 08:31:00,40.9,38.2,29.62,West,269,3.0,8.0,90,0.00,,,0.01,Wunderground v.1.15,2013-04-01 12:31:00,
2013-04-01 08:36:00,41.1,38.4,29.62,West,281,3.0,8.0,90,0.00,,,0.01,Wunderground v.1.15,2013-04-01 12:36:00,
2013-04-01 08:41:00,41.4,38.7,29.61,SW,219,3.0,8.0,90,0.00,,,0.01,Wunderground v.1.15,2013-04-01 12:41:00,
2013-04-01 08:46:00,41.8,38.8,29.61,SW,219,3.0,8.0,89,0.00,,,0.01,Wunderground v.1.15,2013-04-01 12:46:00,
2013-04-01 08:51:00,42.4,39.4,29.62,WSW,251,3.0,8.0,89,0.00,,,0.01,Wunderground v.1.15,2013-04-01 12:51:00,
2013-04-01 08:56:00,42.4,39.1,29.62,WSW,252,3.0,8.0,88,0.00,,,0.01,Wunderground v.1.15,2013-04-01 12:56:00,
2013-04-01 09:02:00,42.5,38.9,29.61,West,276,4.0,8.0,87,0.00,,,0.01,Wunderground v.1.15,2013-04-01 13:02:00,
2013-04-01 09:07:00,42.4,38.8,29.61,WSW,252,5.0,8.0,87,0.00,,,0.01,Wunderground v.1.15,2013-04-01 13:07:00,
2013-04-01 09:12:00,42.7,39.1,29.61,SW,228,4.0,8.0,87,0.00,,,0.01,Wunderground v.1.15,2013-04-01 13:12:00,
2013-04-01 09:17:00,43.1,39.2,29.61,South,181,3.0,8.0,86,0.00,,,0.01,Wunderground v.1.15,2013-04-01 13:17:00,
2013-04-01 09:22:00,43.2,39.0,29.61,SSW,211,4.0,8.0,85,0.00,,,0.01,Wunderground v.1.15,2013-04-01 13:22:00,
2013-04-01 09:28:00,43.4,39.5,29.61,ESE,106,4.0,8.0,86,0.00,,,0.01,Wunderground v.1.15,2013-04-01 13:28:00,
2013-04-01 09:33:00,43.4,38.9,29.60,South,184,4.0,8.0,84,0.00,,,0.01,Wunderground v.1.15,2013-04-01 13:33:00,
2013-04-01 09:38:00,43.4,38.9,29.61,WNW,283,5.0,9.0,84,0.00,,,0.01,Wunderground v.1.15,2013-04-01 13:38:00,
2013-04-01 09:43:00,43.4,38.9,29.61,West,279,4.0,8.0,84,0.00,,,0.01,Wunderground v.1.15,2013-04-01 13:43:00,
2013-04-01 09:48:00,43.3,38.8,29.60,WSW,238,4.0,9.0,84,0.00,,,0.01,Wunderground v.1.15,2013-04-01 13:48:00,
2013-04-01 09:54:00,43.3,38.8,29.60,SW,235,6.0,8.0,84,0.00,,,0.01,Wunderground v.1.15,2013-04-01 13:54:00,
2013-04-01 10:00:00,43.5,39.0,29.60,WNW,295,5.0,5.0,84,0.00,,,0.01,Wunderground v.1.15,2013-04-01 14:00:00,
2013-04-01 10:05:00,43.6,38.8,29.60,WSW,252,3.0,8.0,83,0.00,,,0.01,Wunderground v.1.15,2013-04-01 14:05:00,
2013-04-01 10:10:00,43.6,38.8,29.60,WSW,255,4.0,8.0,83,0.00,,,0.01,Wunderground v.1.15,2013-04-01 14:10:00,
2013-04-01 10:16:00,43.9,38.8,29.60,West,274,4.0,9.0,82,0.00,,,0.01,Wunderground v.1.15,2013-04-01 14:16:00,
2013-04-01 10:21:00,44.1,38.6,29.60,South,184,4.0,9.0,81,0.00,,,0.01,Wunderground v.1.15,2013-04-01 14:21:00,
2013-04-01 10:26:00,44.3,38.8,29.60,SSW,203,5.0,9.0,81,0.00,,,0.01,Wunderground v.1.15,2013-04-01 14:26:00,
2013-04-01 10:32:00,44.7,38.9,29.60,West,260,4.0,8.0,80,0.00,,,0.01,Wunderground v.1.15,2013-04-01 14:32:00,
2013-04-01 10:37:00,45.5,38.7,29.59,SSW,204,5.0,19.0,77,0.00,,,0.01,Wunderground v.1.15,2013-04-01 14:37:00,
2013-04-01 10:43:00,45.4,38.6,29.60,WSW,253,7.0,13.0,77,0.00,,,0.01,Wunderground v.1.15,2013-04-01 14:43:00,
2013-04-01 10:48:00,42.5,37.4,29.62,WNW,293,9.0,13.0,82,0.00,,,0.02,Wunderground v.1.15,2013-04-01 14:48:00,
2013-04-01 10:53:00,40.3,36.7,29.62,NW,304,8.0,9.0,87,0.00,,,0.02,Wunderground v.1.15,2013-04-01 14:53:00,
2013-04-01 10:58:00,39.5,36.5,29.62,West,267,6.0,9.0,89,0.05,,,0.03,Wunderground v.1.15,2013-04-01 14:58:00,
2013-04-01 11:03:00,39.3,36.9,29.62,WSW,252,4.0,8.0,91,0.05,,,0.03,Wunderground v.1.15,2013-04-01 15:03:00,
2013-04-01 11:09:00,39.4,37.3,29.62,WNW,285,3.0,8.0,92,0.05,,,0.03,Wunderground v.1.15,2013-04-01 15:09:00,
2013-04-01 11:14:00,39.4,37.0,29.63,West,262,4.0,8.0,91,0.04,,,0.03,Wunderground v.1.15,2013-04-01 15:14:00,
2013-04-01 11:19:00,39.3,36.9,29.63,WNW,288,5.0,8.0,91,0.00,,,0.03,Wunderground v.1.15,2013-04-01 15:19:00,
2013-04-01 11:24:00,39.2,37.1,29.63,West,278,5.0,8.0,92,0.00,,,0.04,Wunderground v.1.15,2013-04-01 15:24:00,
2013-04-01 11:30:00,39.1,37.0,29.63,NNW,333,4.0,8.0,92,0.00,,,0.04,Wunderground v.1.15,2013-04-01 15:30:00,
2013-04-01 11:35:00,37.9,35.5,29.64,NW,308,6.0,14.0,91,0.08,,,0.05,Wunderground v.1.15,2013-04-01 15:35:00,
2013-04-01 11:41:00,36.9,34.8,29.64,West,264,7.0,8.0,92,0.06,,,0.05,Wunderground v.1.15,2013-04-01 15:41:00,
2013-04-01 11:47:00,36.7,34.9,29.64,South,173,6.0,8.0,93,0.04,,,0.05,Wunderground v.1.15,2013-04-01 15:47:00,
2013-04-01 11:52:00,36.8,35.0,29.65,WNW,296,6.0,14.0,93,0.00,,,0.05,Wunderground v.1.15,2013-04-01 15:52:00,
2013-04-01 11:57:00,36.8,34.7,29.65,SW,215,5.0,14.0,92,0.00,,,0.05,Wunderground v.1.15,2013-04-01 15:57:00,
2013-04-01 12:03:00,36.8,34.7,29.65,West,281,5.0,9.0,92,0.00,,,0.05,Wunderground v.1.15,2013-04-01 16:03:00,
2013-04-01 12:08:00,36.8,34.7,29.65,WNW,296,5.0,9.0,92,0.00,,,0.05,Wunderground v.1.15,2013-04-01 16:08:00,
2013-04-01 12:13:00,36.9,34.8,29.65,WNW,302,5.0,8.0,92,0.00,,,0.06,Wunderground v.1.15,2013-04-01 16:13:00,
2013-04-01 12:19:00,37.1,35.0,29.65,NE,55,4.0,8.0,92,0.00,,,0.06,Wunderground v.1.15,2013-04-01 16:19:00,
2013-04-01 12:24:00,37.1,35.0,29.65,WSW,248,3.0,8.0,92,0.00,,,0.06,Wunderground v.1.15,2013-04-01 16:24:00,
2013-04-01 12:29:00,37.2,34.8,29.65,WSW,237,4.0,8.0,91,0.00,,,0.06,Wunderground v.1.15,2013-04-01 16:29:00,
2013-04-01 12:35:00,37.2,34.5,29.65,SW,233,4.0,8.0,90,0.00,,,0.06,Wunderground v.1.15,2013-04-01 16:35:00,
2013-04-01 12:41:00,37.3,34.9,29.65,WSW,250,3.0,5.0,91,0.00,,,0.06,Wunderground v.1.15,2013-04-01 16:41:00,
2013-04-01 12:46:00,37.3,34.9,29.65,WSW,243,3.0,8.0,91,0.00,,,0.06,Wunderground v.1.15,2013-04-01 16:46:00,
2013-04-01 12:51:00,37.3,34.9,29.64,SSW,208,3.0,8.0,91,0.00,,,0.06,Wunderground v.1.15,2013-04-01 16:51:00,
2013-04-01 12:56:00,36.9,34.5,29.67,WNW,291,4.0,12.0,91,0.00,,,0.06,Wunderground v.1.15,2013-04-01 16:56:00,
2013-04-01 13:02:00,34.4,31.5,29.67,West,260,7.0,12.0,89,0.00,,,0.06,Wunderground v.1.15,2013-04-01 17:02:00,
2013-04-01 13:07:00,32.9,30.6,29.68,North,352,8.0,12.0,91,0.00,,,0.06,Wunderground v.1.15,2013-04-01 17:07:00,
2013-04-01 13:13:00,32.1,30.3,29.68,NNE,12,7.0,9.0,93,0.00,,,0.06,Wunderground v.1.15,2013-04-01 17:13:00,
2013-04-01 13:18:00,31.6,30.1,29.68,WNW,291,6.0,9.0,94,0.00,,,0.06,Wunderground v.1.15,2013-04-01 17:18:00,
2013-04-01 13:24:00,31.5,30.0,29.69,West,273,5.0,8.0,94,0.00,,,0.06,Wunderground v.1.15,2013-04-01 17:24:00,
2013-04-01 13:29:00,31.5,30.2,29.70,NW,325,4.0,8.0,95,0.00,,,0.06,Wunderground v.1.15,2013-04-01 17:29:00,
2013-04-01 13:34:00,31.3,30.0,29.70,West,262,4.0,8.0,95,0.00,,,0.06,Wunderground v.1.15,2013-04-01 17:34:00,
2013-04-01 13:40:00,30.9,29.4,29.70,NW,321,5.0,5.0,94,0.00,,,0.06,Wunderground v.1.15,2013-04-01 17:40:00,
2013-04-01 13:45:00,30.7,29.4,29.71,West,280,5.0,8.0,95,0.00,,,0.06,Wunderground v.1.15,2013-04-01 17:45:00,
2013-04-01 13:50:00,30.7,29.4,29.70,WNW,300,4.0,8.0,95,0.00,,,0.06,Wunderground v.1.15,2013-04-01 17:50:00,
2013-04-01 13:56:00,30.7,29.4,29.71,WNW,298,4.0,8.0,95,0.00,,,0.06,Wunderground v.1.15,2013-04-01 17:56:00,
2013-04-01 14:01:00,30.6,29.3,29.71,WNW,293,4.0,8.0,95,0.00,,,0.06,Wunderground v.1.15,2013-04-01 18:01:00,
2013-04-01 14:06:00,30.7,29.4,29.71,SW,222,4.0,8.0,95,0.00,,,0.06,Wunderground v.1.15,2013-04-01 18:06:00,
2013-04-01 14:11:00,30.7,29.4,29.71,NW,314,4.0,8.0,95,0.00,,,0.06,Wunderground v.1.15,2013-04-01 18:11:00,
2013-04-01 14:16:00,30.8,29.5,29.71,WSW,256,4.0,8.0,95,0.00,,,0.06,Wunderground v.1.15,2013-04-01 18:16:00,
2013-04-01 14:22:00,30.5,29.2,29.71,WSW,252,5.0,8.0,95,0.00,,,0.06,Wunderground v.1.15,2013-04-01 18:22:00,
2013-04-01 14:27:00,30.3,29.0,29.71,WNW,295,5.0,8.0,95,0.00,,,0.06,Wunderground v.1.15,2013-04-01 18:27:00,
2013-04-01 14:32:00,30.2,28.9,29.72,NW,321,6.0,9.0,95,0.00,,,0.06,Wunderground v.1.15,2013-04-01 18:32:00,
2013-04-01 14:38:00,30.2,28.9,29.72,NW,308,6.0,9.0,95,0.00,,,0.06,Wunderground v.1.15,2013-04-01 18:38:00,
2013-04-01 14:43:00,30.5,29.0,29.72,North,11,5.0,8.0,94,0.00,,,0.06,Wunderground v.1.15,2013-04-01 18:43:00,
2013-04-01 14:49:00,30.7,28.9,29.72,West,262,5.0,8.0,93,0.00,,,0.06,Wunderground v.1.15,2013-04-01 18:49:00,
2013-04-01 14:54:00,30.6,28.6,29.72,West,260,6.0,13.0,92,0.00,,,0.06,Wunderground v.1.15,2013-04-01 18:54:00,
2013-04-01 14:59:00,30.6,28.6,29.72,North,4,6.0,13.0,92,0.00,,,0.06,Wunderground v.1.15,2013-04-01 18:59:00,
2013-04-01 15:04:00,31.5,29.4,29.72,West,274,5.0,8.0,92,0.00,,,0.06,Wunderground v.1.15,2013-04-01 19:04:00,
2013-04-01 15:09:00,32.6,30.3,29.72,WNW,297,4.0,8.0,91,0.00,,,0.06,Wunderground v.1.15,2013-04-01 19:09:00,
2013-04-01 15:14:00,33.4,30.5,29.72,NW,323,4.0,8.0,89,0.00,,,0.06,Wunderground v.1.15,2013-04-01 19:14:00,
2013-04-01 15:20:00,33.0,29.6,29.72,West,273,5.0,8.0,87,0.00,,,0.06,Wunderground v.1.15,2013-04-01 19:20:00,
2013-04-01 15:25:00,32.7,29.5,29.72,NNW,342,6.0,8.0,88,0.00,,,0.06,Wunderground v.1.15,2013-04-01 19:25:00,
2013-04-01 15:30:00,32.4,29.2,29.72,North,4,6.0,8.0,88,0.00,,,0.06,Wunderground v.1.15,2013-04-01 19:30:00,
2013-04-01 15:35:00,32.7,29.0,29.72,WNW,285,6.0,8.0,86,0.00,,,0.07,Wunderground v.1.15,2013-04-01 19:35:00,
2013-04-01 15:40:00,33.0,28.4,29.73,WNW,294,7.0,8.0,83,0.00,,,0.07,Wunderground v.1.15,2013-04-01 19:40:00,
2013-04-01 15:47:00,33.6,28.1,29.72,NNW,330,8.0,16.0,80,0.08,,,0.08,Wunderground v.1.15,2013-04-01 19:47:00,
2013-04-01 15:52:00,33.4,27.3,29.72,NW,314,8.0,10.0,78,0.06,,,0.08,Wunderground v.1.15,2013-04-01 19:52:00,
2013-04-01 15:57:00,33.8,26.7,29.72,NNW,332,7.0,10.0,75,0.04,,,0.08,Wunderground v.1.15,2013-04-01 19:57:00,
2013-04-01 16:02:00,34.6,26.5,29.73,NW,314,7.0,14.0,72,0.04,,,0.09,Wunderground v.1.15,2013-04-01 20:02:00,
2013-04-01 16:08:00,34.7,24.9,29.73,NNW,328,9.0,14.0,67,0.04,,,0.09,Wunderground v.1.15,2013-04-01 20:08:00,
2013-04-01 16:14:00,34.8,25.3,29.73,West,280,9.0,14.0,68,0.04,,,0.09,Wunderground v.1.15,2013-04-01 20:14:00,
2013-04-01 16:19:00,35.2,25.0,29.74,WNW,296,8.0,14.0,66,0.00,,,0.10,Wunderground v.1.15,2013-04-01 20:19:00,
2013-04-01 16:24:00,35.1,24.9,29.74,North,354,8.0,15.0,66,0.00,,,0.10,Wunderground v.1.15,2013-04-01 20:24:00,
2013-04-01 16:30:00,35.1,23.0,29.74,SSW,204,8.0,8.0,61,0.00,,,0.10,Wunderground v.1.15,2013-04-01 20:30:00,
2013-04-01 16:36:00,34.5,22.4,29.74,NNW,338,8.0,12.0,61,0.00,,,0.10,Wunderground v.1.15,2013-04-01 20:36:00,
2013-04-01 16:42:00,34.5,23.6,29.75,WNW,283,8.0,8.0,64,0.00,,,0.10,Wunderground v.1.15,2013-04-01 20:42:00,
2013-04-01 16:48:00,35.1,23.0,29.75,NW,315,8.0,11.0,61,0.00,,,0.10,Wunderground v.1.15,2013-04-01 20:48:00,
2013-04-01 16:53:00,34.8,20.7,29.75,NW,310,9.0,11.0,56,0.00,,,0.10,Wunderground v.1.15,2013-04-01 20:53:00,
2013-04-01 16:58:00,34.9,21.2,29.76,West,281,9.0,14.0,57,0.00,,,0.10,Wunderground v.1.15,2013-04-01 20:58:00,
2013-04-01 17:03:00,34.8,19.8,29.76,West,264,8.0,10.0,54,0.00,,,0.11,Wunderground v.1.15,2013-04-01 21:03:00,
2013-04-01 17:09:00,35.3,21.6,29.76,NW,308,8.0,10.0,57,0.00,,,0.11,Wunderground v.1.15,2013-04-01 21:09:00,
2013-04-01 17:15:00,34.6,21.3,29.76,WNW,283,7.0,10.0,58,0.00,,,0.11,Wunderground v.1.15,2013-04-01 21:15:00,
2013-04-01 17:20:00,34.0,20.3,29.77,NNE,12,7.0,8.0,57,0.00,,,0.11,Wunderground v.1.15,2013-04-01 21:20:00,
2013-04-01 17:25:00,33.7,20.1,29.77,NW,310,9.0,16.0,57,0.00,,,0.11,Wunderground v.1.15,2013-04-01 21:25:00,
2013-04-01 17:30:00,32.8,18.8,29.77,West,278,8.0,11.0,56,0.00,,,0.11,Wunderground v.1.15,2013-04-01 21:30:00,
2013-04-01 17:35:00,32.9,17.6,29.77,NW,325,8.0,18.0,53,0.00,,,0.11,Wunderground v.1.15,2013-04-01 21:35:00,
2013-04-01 17:42:00,33.4,18.1,29.78,NNE,19,7.0,14.0,53,0.00,,,0.11,Wunderground v.1.15,2013-04-01 21:42:00,
2013-04-01 17:47:00,33.2,17.0,29.77,WNW,291,8.0,14.0,51,0.00,,,0.11,Wunderground v.1.15,2013-04-01 21:47:00,
2013-04-01 17:52:00,33.3,17.1,29.78,WNW,288,8.0,13.0,51,0.00,,,0.11,Wunderground v.1.15,2013-04-01 21:52:00,
2013-04-01 17:57:00,33.1,16.9,29.78,WNW,297,8.0,16.0,51,0.00,,,0.11,Wunderground v.1.15,2013-04-01 21:57:00,
2013-04-01 18:02:00,32.7,17.4,29.78,North,11,8.0,10.0,53,0.00,,,0.11,Wunderground v.1.15,2013-04-01 22:02:00,
2013-04-01 18:07:00,32.7,17.4,29.79,NW,308,8.0,14.0,53,0.00,,,0.11,Wunderground v.1.15,2013-04-01 22:07:00,
2013-04-01 18:12:00,32.1,18.2,29.79,WNW,297,7.0,12.0,56,0.00,,,0.11,Wunderground v.1.15,2013-04-01 22:12:00,
2013-04-01 18:18:00,31.0,17.1,29.80,NNW,335,7.0,15.0,56,0.00,,,0.11,Wunderground v.1.15,2013-04-01 22:18:00,
2013-04-01 18:23:00,30.6,18.3,29.80,WNW,288,6.0,9.0,60,0.00,,,0.11,Wunderground v.1.15,2013-04-01 22:23:00,
2013-04-01 18:28:00,30.6,18.3,29.80,WNW,283,4.0,9.0,60,0.00,,,0.11,Wunderground v.1.15,2013-04-01 22:28:00,
2013-04-01 18:34:00,30.5,18.6,29.81,WNW,283,4.0,8.0,61,0.00,,,0.11,Wunderground v.1.15,2013-04-01 22:34:00,
2013-04-01 18:39:00,30.3,18.1,29.81,WNW,287,6.0,15.0,60,0.00,,,0.11,Wunderground v.1.15,2013-04-01 22:39:00,
2013-04-01 18:44:00,30.5,18.6,29.81,NNW,330,6.0,9.0,61,0.00,,,0.11,Wunderground v.1.15,2013-04-01 22:44:00,
2013-04-01 18:49:00,30.1,15.4,29.81,NNW,345,6.0,9.0,54,0.00,,,0.11,Wunderground v.1.15,2013-04-01 22:49:00,
2013-04-01 18:54:00,29.6,15.4,29.82,NW,314,7.0,9.0,55,0.00,,,0.11,Wunderground v.1.15,2013-04-01 22:54:00,
2013-04-01 18:59:00,29.2,15.8,29.81,NW,307,6.0,12.0,57,0.00,,,0.11,Wunderground v.1.15,2013-04-01 22:59:00,
2013-04-01 19:05:00,29.0,16.4,29.82,NW,315,7.0,8.0,59,0.00,,,0.11,Wunderground v.1.15,2013-04-01 23:05:00,
2013-04-01 19:10:00,28.8,17.0,29.82,West,277,5.0,5.0,61,0.00,,,0.11,Wunderground v.1.15,2013-04-01 23:10:00,
2013-04-01 19:16:00,28.6,17.6,29.82,North,352,4.0,8.0,63,0.00,,,0.11,Wunderground v.1.15,2013-04-01 23:16:00,
2013-04-01 19:21:00,28.6,18.3,29.82,West,276,4.0,5.0,65,0.00,,,0.11,Wunderground v.1.15,2013-04-01 23:21:00,
2013-04-01 19:26:00,28.5,17.9,29.82,WNW,285,5.0,8.0,64,0.00,,,0.11,Wunderground v.1.15,2013-04-01 23:26:00,
2013-04-01 19:32:00,28.3,17.3,29.82,North,360,6.0,8.0,63,0.00,,,0.11,Wunderground v.1.15,2013-04-01 23:32:00,
2013-04-01 19:37:00,28.0,16.3,29.83,West,276,6.0,8.0,61,0.00,,,0.11,Wunderground v.1.15,2013-04-01 23:37:00,
2013-04-01 19:42:00,27.8,15.7,29.83,West,276,7.0,8.0,60,0.00,,,0.11,Wunderground v.1.15,2013-04-01 23:42:00,
2013-04-01 19:48:00,27.5,16.2,29.83,WNW,288,6.0,8.0,62,0.00,,,0.11,Wunderground v.1.15,2013-04-01 23:48:00,
2013-04-01 19:54:00,27.3,16.4,29.83,NNW,327,5.0,8.0,63,0.00,,,0.11,Wunderground v.1.15,2013-04-01 23:54:00,
2013-04-01 19:59:00,27.2,16.3,29.84,West,266,5.0,8.0,63,0.00,,,0.11,Wunderground v.1.15,2013-04-01 23:59:00,
2013-04-01 20:04:00,27.1,16.5,29.84,NW,326,6.0,13.0,64,0.00,,,0.11,Wunderground v.1.15,2013-04-02 00:04:00,
2013-04-01 20:09:00,27.1,16.9,29.84,SW,218,6.0,13.0,65,0.00,,,0.11,Wunderground v.1.15,2013-04-02 00:09:00,
2013-04-01 20:15:00,27.1,16.9,29.84,SW,224,5.0,8.0,65,0.00,,,0.11,Wunderground v.1.15,2013-04-02 00:15:00,
2013-04-01 20:20:00,27.1,17.2,29.84,SW,231,6.0,6.0,66,0.00,,,0.11,Wunderground v.1.15,2013-04-02 00:20:00,
2013-04-01 20:25:00,26.9,17.4,29.85,West,274,5.0,8.0,67,0.00,,,0.11,Wunderground v.1.15,2013-04-02 00:25:00,
2013-04-01 20:30:00,26.9,17.7,29.85,WNW,284,5.0,8.0,68,0.00,,,0.11,Wunderground v.1.15,2013-04-02 00:30:00,
2013-04-01 20:35:00,26.8,17.6,29.84,West,278,5.0,8.0,68,0.00,,,0.11,Wunderground v.1.15,2013-04-02 00:35:00,
2013-04-01 20:40:00,26.8,17.6,29.85,NNE,23,4.0,11.0,68,0.00,,,0.11,Wunderground v.1.15,2013-04-02 00:40:00,
2013-04-01 20:45:00,26.5,18.0,29.86,WNW,288,6.0,11.0,70,0.00,,,0.11,Wunderground v.1.15,2013-04-02 00:45:00,
2013-04-01 20:51:00,25.1,21.8,29.86,NW,322,6.0,8.0,87,0.00,,,0.11,Wunderground v.1.15,2013-04-02 00:51:00,
2013-04-01 20:56:00,24.8,22.0,29.87,West,280,5.0,9.0,89,0.00,,,0.11,Wunderground v.1.15,2013-04-02 00:56:00,
2013-04-01 21:01:00,24.8,22.0,29.86,WNW,290,4.0,8.0,89,0.00,,,0.11,Wunderground v.1.15,2013-04-02 01:01:00,
2013-04-01 21:06:00,24.8,22.0,29.86,WNW,282,4.0,8.0,89,0.00,,,0.11,Wunderground v.1.15,2013-04-02 01:06:00,
2013-04-01 21:11:00,24.9,21.8,29.87,WNW,293,5.0,8.0,88,0.00,,,0.11,Wunderground v.1.15,2013-04-02 01:11:00,
2013-04-01 21:16:00,25.0,21.4,29.87,WNW,285,5.0,8.0,86,0.00,,,0.11,Wunderground v.1.15,2013-04-02 01:16:00,
2013-04-01 21:21:00,24.9,21.0,29.87,WNW,290,5.0,8.0,85,0.00,,,0.11,Wunderground v.1.15,2013-04-02 01:21:00,
2013-04-01 21:27:00,24.7,21.1,29.87,West,259,5.0,9.0,86,0.00,,,0.11,Wunderground v.1.15,2013-04-02 01:27:00,
2013-04-01 21:32:00,24.1,21.3,29.87,WNW,290,6.0,8.0,89,0.00,,,0.11,Wunderground v.1.15,2013-04-02 01:32:00,
2013-04-01 21:37:00,23.8,21.6,29.87,NW,304,4.0,8.0,91,0.00,,,0.11,Wunderground v.1.15,2013-04-02 01:37:00,
2013-04-01 21:42:00,23.6,21.4,29.88,WSW,257,4.0,8.0,91,0.00,,,0.11,Wunderground v.1.15,2013-04-02 01:42:00,
2013-04-01 21:47:00,23.6,21.6,29.88,WNW,285,4.0,9.0,92,0.00,,,0.11,Wunderground v.1.15,2013-04-02 01:47:00,
2013-04-01 21:53:00,23.6,21.4,29.88,NW,310,5.0,8.0,91,0.00,,,0.11,Wunderground v.1.15,2013-04-02 01:53:00,
2013-04-01 21:59:00,23.6,21.1,29.87,WNW,299,4.0,8.0,90,0.00,,,0.11,Wunderground v.1.15,2013-04-02 01:59:00,
2013-04-01 22:04:00,23.8,20.8,29.88,West,281,5.0,8.0,88,0.00,,,0.11,Wunderground v.1.15,2013-04-02 02:04:00,
2013-04-01 22:09:00,23.8,20.8,29.88,West,264,5.0,13.0,88,0.00,,,0.11,Wunderground v.1.15,2013-04-02 02:09:00,
2013-04-01 22:15:00,23.8,20.5,29.88,WNW,282,5.0,10.0,87,0.00,,,0.11,Wunderground v.1.15,2013-04-02 02:15:00,
2013-04-01 22:20:00,23.9,20.3,29.88,WNW,297,5.0,8.0,86,0.00,,,0.11,Wunderground v.1.15,2013-04-02 02:20:00,
2013-04-01 22:25:00,23.8,19.9,29.88,WNW,299,5.0,8.0,85,0.00,,,0.11,Wunderground v.1.15,2013-04-02 02:25:00,
2013-04-01 22:31:00,23.8,19.9,29.88,West,271,4.0,8.0,85,0.00,,,0.11,Wunderground v.1.15,2013-04-02 02:31:00,
2013-04-01 22:36:00,23.7,19.6,29.88,SSW,208,3.0,8.0,84,0.00,,,0.11,Wunderground v.1.15,2013-04-02 02:36:00,
2013-04-01 22:41:00,23.5,19.4,29.88,North,9,3.0,8.0,84,0.00,,,0.11,Wunderground v.1.15,2013-04-02 02:41:00,
2013-04-01 22:46:00,23.5,19.4,29.88,NW,309,3.0,8.0,84,0.00,,,0.11,Wunderground v.1.15,2013-04-02 02:46:00,
2013-04-01 22:51:00,23.4,19.3,29.88,West,269,3.0,8.0,84,0.00,,,0.11,Wunderground v.1.15,2013-04-02 02:51:00,
2013-04-01 22:56:00,23.3,19.2,29.88,West,270,3.0,8.0,84,0.00,,,0.11,Wunderground v.1.15,2013-04-02 02:56:00,
2013-04-01 23:01:00,23.2,19.1,29.88,West,264,3.0,8.0,84,0.00,,,0.11,Wunderground v.1.15,2013-04-02 03:01:00,
2013-04-01 23:07:00,23.0,18.9,29.88,WNW,293,3.0,8.0,84,0.00,,,0.11,Wunderground v.1.15,2013-04-02 03:07:00,
2013-04-01 23:12:00,22.9,18.5,29.88,West,276,3.0,8.0,83,0.00,,,0.11,Wunderground v.1.15,2013-04-02 03:12:00,
2013-04-01 23:17:00,22.8,17.8,29.88,WSW,239,4.0,8.0,81,0.00,,,0.11,Wunderground v.1.15,2013-04-02 03:17:00,
2013-04-01 23:22:00,22.8,17.8,29.88,NW,312,3.0,8.0,81,0.00,,,0.11,Wunderground v.1.15,2013-04-02 03:22:00,
2013-04-01 23:27:00,22.7,17.7,29.88,WNW,295,3.0,8.0,81,0.00,,,0.11,Wunderground v.1.15,2013-04-02 03:27:00,
2013-04-01 23:32:00,22.7,17.5,29.88,WNW,295,3.0,8.0,80,0.00,,,0.11,Wunderground v.1.15,2013-04-02 03:32:00,
2013-04-01 23:37:00,22.5,17.3,29.88,WSW,258,3.0,8.0,80,0.00,,,0.11,Wunderground v.1.15,2013-04-02 03:37:00,
2013-04-01 23:42:00,22.4,17.5,29.88,WNW,283,3.0,8.0,81,0.00,,,0.11,Wunderground v.1.15,2013-04-02 03:42:00,
2013-04-01 23:47:00,22.3,17.6,29.88,West,277,2.0,8.0,82,0.00,,,0.11,Wunderground v.1.15,2013-04-02 03:47:00,
2013-04-01 23:52:00,22.4,17.7,29.88,WNW,288,3.0,8.0,82,0.00,,,0.11,Wunderground v.1.15,2013-04-02 03:52:00,
2013-04-01 23:58:00,22.7,17.7,29.88,West,281,4.0,8.0,81,0.00,,,0.11,Wunderground v.1.15,2013-04-02 03:58:00,